Latest Weather Observations for Darwin

IDD60901

Issued at 8:55 pm CST Thursday 31 July 2014 (issued every 10 minutes, with the page automatically refreshed every 10 minutes)

About weather observations | Map of Darwin area stations | Latest observations for Darwin area | Other Formats
Station Details ID: 014015 Name: DARWIN AIRPORT Lat: -12.42 Lon: 130.89 Height: 30.4 m
Data from the previous 72 hours. | See also: Recent months at Darwin
Date/Time
CST
Tmp

°C
App
Tmp
°C
Dew
Point
°C
Rel
Hum
%
Delta-T

°C
Wind Press
QNH
hPa
Press
MSL
hPa
Rain
since
9 am
mm
Dir
 
Spd
km/h
Gust
km/h
Spd
kts
Gust
kts
31/08:30pm 24.9 26.5 18.3 66 4.2 E 7 9 4 5 1012.8 - 0.0
31/08:00pm 25.5 27.0 18.9 67 4.2 NNE 9 13 5 7 1012.3 - 0.0
31/07:30pm 26.0 26.5 18.3 62 4.9 NNE 13 17 7 9 1012.1 - 0.0
31/07:00pm 26.4 26.2 18.4 61 5.1 NNE 17 24 9 13 1011.9 - 0.0
31/06:30pm 26.9 26.4 18.6 60 5.3 N 19 24 10 13 1011.9 - 0.0
31/06:00pm 27.8 27.4 18.1 55 6.2 N 17 22 9 12 1011.6 1011.4 0.0
31/05:30pm 28.7 27.4 17.3 50 7.2 N 20 20 11 11 1011.5 - 0.0
31/05:00pm 29.5 27.7 15.6 43 8.6 N 19 24 10 13 1011.4 - 0.0
31/04:30pm 29.2 27.0 16.8 47 7.8 N 24 30 13 16 1011.4 - 0.0
31/04:00pm 30.4 29.1 17.3 45 8.3 N 20 26 11 14 1011.3 - 0.0
31/03:30pm 29.9 28.2 18.0 48 7.6 N 24 26 13 14 1011.3 - 0.0
31/03:00pm 30.6 29.3 19.1 50 7.5 NW 24 30 13 16 1011.7 1011.5 0.0
31/02:30pm 32.7 29.9 12.6 29 12.0 WNW 19 28 10 15 1012.3 - 0.0
31/02:00pm 32.3 31.2 13.2 31 11.5 WSW 11 22 6 12 1012.9 - 0.0
31/01:30pm 31.7 30.2 14.3 34 10.6 E 15 26 8 14 1013.5 - 0.0
31/01:00pm 30.5 29.9 15.6 40 9.2 ESE 13 20 7 11 1014.0 - 0.0
31/12:30pm 30.8 29.3 16.2 41 9.1 E 19 32 10 17 1014.3 - 0.0
31/12:00pm 30.1 29.1 16.7 44 8.4 E 17 26 9 14 1015.0 1014.8 0.0
31/11:30am 29.0 27.5 17.8 50 7.1 ENE 22 28 12 15 1015.5 - 0.0
31/11:00am 28.2 27.7 19.1 57 5.9 E 20 30 11 16 1015.8 - 0.0
31/10:30am 27.3 27.0 19.1 61 5.3 E 19 26 10 14 1016.1 - 0.0
31/10:00am 27.2 27.7 19.3 62 5.1 ENE 15 26 8 14 1016.3 - 0.0
31/09:30am 27.0 28.6 20.8 69 4.1 ENE 13 22 7 12 1016.2 - 0.0
31/09:00am 25.9 28.2 21.4 76 3.0 ENE 11 15 6 8 1016.0 1015.8 0.0
31/08:30am 24.8 27.4 21.2 80 2.4 E 9 11 5 6 1015.8 - 0.0
31/08:00am 23.4 25.6 20.5 84 1.9 E 9 11 5 6 1015.7 - 0.0
31/07:30am 21.2 22.9 19.3 89 1.2 E 9 11 5 6 1015.6 - 0.0
31/07:00am 21.1 23.1 19.2 89 1.2 ENE 7 7 4 4 1015.2 - 0.0
31/06:30am 21.3 23.2 18.9 86 1.5 E 7 9 4 5 1015.1 - 0.0
31/06:00am 21.5 23.0 18.8 84 1.7 E 9 11 5 6 1014.9 1014.7 0.0
31/05:30am 22.1 24.0 18.9 82 2.0 E 7 9 4 5 1014.9 - 0.0
31/05:00am 22.3 25.5 18.8 80 2.2 CALM 0 0 0 0 1014.8 - 0.0
31/04:30am 23.3 25.3 18.7 75 2.9 SSE 6 7 3 4 1014.6 - 0.0
31/04:00am 23.4 25.0 18.3 73 3.2 SSE 7 9 4 5 1014.6 - 0.0
31/03:30am 21.7 23.2 19.0 84 1.7 E 9 9 5 5 1014.6 - 0.0
31/03:00am 21.2 22.9 18.6 85 1.6 ESE 7 7 4 4 1014.8 1014.6 0.0
31/02:30am 21.9 23.4 18.9 83 1.9 SE 9 11 5 6 1014.9 - 0.0
31/02:00am 21.9 23.4 18.9 83 1.9 SSE 9 11 5 6 1014.8 - 0.0
31/01:30am 23.4 25.0 19.2 77 2.7 S 9 11 5 6 1015.0 - 0.0
31/01:00am 22.2 25.2 18.4 79 2.4 CALM 0 0 0 0 1015.0 - 0.0
31/12:30am 22.3 24.5 18.3 78 2.5 SE 4 7 2 4 1015.1 - 0.0
31/12:00am 22.4 24.1 18.6 79 2.4 S 7 9 4 5 1015.0 1014.8 0.0
 
Date/Time
CST
Tmp

°C
App
Tmp
°C
Dew
Point
°C
Rel
Hum
%
Delta-T

°C
Wind Press
QNH
hPa
Press
MSL
hPa
Rain
since
9 am
mm
Dir
 
Spd
km/h
Gust
km/h
Spd
kts
Gust
kts
30/11:30pm 22.5 24.2 18.5 78 2.5 S 7 7 4 4 1014.9 - 0.0
30/11:00pm 24.2 25.8 18.3 69 3.7 S 7 9 4 5 1014.9 - 0.0
30/10:30pm 23.8 25.6 18.2 71 3.5 S 6 9 3 5 1014.9 - 0.0
30/10:00pm 24.2 25.9 18.0 68 3.9 S 6 7 3 4 1014.7 - 0.0
30/09:30pm 24.1 25.7 17.9 68 3.9 ESE 6 7 3 4 1014.5 - 0.0
30/09:00pm 24.5 25.9 17.8 66 4.2 E 7 9 4 5 1014.3 1014.1 0.0
30/08:30pm 25.1 26.0 17.6 63 4.7 NE 9 13 5 7 1014.2 - 0.0
30/08:00pm 25.4 24.7 17.4 61 5.0 NNE 17 26 9 14 1013.6 - 0.0
30/07:30pm 26.0 24.4 16.4 55 5.9 NE 20 26 11 14 1013.2 - 0.0
30/07:00pm 26.6 24.9 16.2 52 6.4 NE 20 26 11 14 1012.9 - 0.0
30/06:30pm 27.3 24.7 15.9 49 7.0 NNE 24 32 13 17 1012.6 - 0.0
30/06:00pm 28.2 24.9 16.1 47 7.5 NNE 28 35 15 19 1012.4 1012.2 0.0
30/05:30pm 28.8 25.3 16.4 47 7.7 NNE 30 41 16 22 1012.0 - 0.0
30/05:00pm 29.6 26.0 16.3 44 8.3 NNE 30 37 16 20 1011.9 - 0.0
30/04:30pm 30.1 27.2 16.1 42 8.7 NNE 26 33 14 18 1011.6 - 0.0
30/04:00pm 30.5 27.7 15.4 40 9.3 N 24 32 13 17 1011.7 - 0.0
30/03:30pm 33.1 29.4 7.9 21 14.0 NNE 17 24 9 13 1011.8 - 0.0
30/03:00pm 32.5 27.0 7.4 21 13.8 ESE 26 37 14 20 1012.1 1011.9 0.0
30/02:30pm 32.5 27.5 8.0 22 13.6 E 24 32 13 17 1012.6 - 0.0
30/02:00pm 32.3 26.6 8.5 23 13.3 ESE 28 43 15 23 1013.2 - 0.0
30/01:30pm 32.1 25.9 9.3 24 12.9 E 32 39 17 21 1013.6 - 0.0
30/01:00pm 31.7 26.3 9.4 25 12.6 E 28 39 15 21 1014.0 - 0.0
30/12:30pm 31.1 25.3 9.5 26 12.2 E 30 43 16 23 1014.5 - 0.0
30/12:00pm 30.4 25.7 10.7 29 11.3 SE 26 33 14 18 1015.1 1014.9 0.0
30/11:30am 30.0 24.9 11.8 32 10.6 E 30 37 16 20 1015.7 - 0.0
30/11:00am 29.4 24.1 11.4 32 10.4 ESE 30 39 16 21 1016.2 - 0.0
30/10:30am 28.7 24.1 12.4 36 9.5 E 28 35 15 19 1016.4 - 0.0
30/10:00am 28.2 24.7 14.4 42 8.3 E 26 32 14 17 1016.5 - 0.0
30/09:30am 26.8 25.4 16.6 53 6.3 ESE 19 28 10 15 1016.5 - 0.0
30/09:00am 24.8 25.9 19.7 73 3.3 SE 13 17 7 9 1016.6 1016.4 0.0
30/08:30am 23.3 24.9 19.9 81 2.2 SE 11 15 6 8 1016.5 - 0.0
30/08:00am 22.3 23.7 20.4 89 1.2 SE 13 15 7 8 1016.3 - 0.0
30/07:30am 21.3 23.0 20.2 93 0.7 SE 11 13 6 7 1015.8 - 0.0
30/07:00am 19.9 20.9 18.6 92 0.8 ESE 11 13 6 7 1015.5 - 0.0
30/06:33am 20.0 21.9 18.9 93 0.7 SE 7 9 4 5 1015.2 - 0.0
30/06:30am 20.0 21.5 18.9 93 0.7 SE 9 9 5 5 1015.2 - 0.0
30/06:00am 20.2 22.2 18.8 92 0.9 SE 6 6 3 3 1015.0 1014.8 0.0
30/05:30am 20.5 22.7 19.1 92 0.9 SE 6 7 3 4 1014.9 - 0.0
30/05:00am 20.7 22.7 19.1 90 1.0 SSE 7 7 4 4 1014.9 - 0.0
30/04:30am 21.1 23.2 19.0 88 1.3 SSE 6 7 3 4 1014.8 - 0.0
30/04:00am 21.6 23.6 19.1 86 1.6 S 7 7 4 4 1014.6 - 0.0
30/03:30am 22.3 24.5 19.5 84 1.8 S 7 9 4 5 1014.7 - 0.0
30/03:00am 22.1 24.2 19.4 85 1.7 SE 7 9 4 5 1014.8 1014.6 0.0
30/02:30am 22.6 24.9 19.8 84 1.8 ESE 7 7 4 4 1014.9 - 0.0
30/02:00am 21.9 23.5 19.2 85 1.7 E 9 11 5 6 1014.8 - 0.0
30/01:30am 22.7 24.4 19.4 81 2.1 E 9 11 5 6 1015.0 - 0.0
30/01:00am 23.2 25.0 19.6 80 2.3 E 9 11 5 6 1015.2 - 0.0
30/12:30am 23.6 25.0 19.5 78 2.6 E 11 13 6 7 1015.3 - 0.0
30/12:00am 23.7 25.1 19.5 77 2.7 E 11 15 6 8 1015.2 1015.0 0.0
 
Date/Time
CST
Tmp

°C
App
Tmp
°C
Dew
Point
°C
Rel
Hum
%
Delta-T

°C
Wind Press
QNH
hPa
Press
MSL
hPa
Rain
since
9 am
mm
Dir
 
Spd
km/h
Gust
km/h
Spd
kts
Gust
kts
29/11:30pm 24.0 24.5 19.3 75 3.0 NE 15 17 8 9 1015.2 - 0.0
29/11:00pm 24.0 24.5 19.3 75 3.0 NE 15 19 8 10 1015.1 - 0.0
29/10:30pm 24.3 25.1 19.1 73 3.3 NE 13 17 7 9 1015.1 - 0.0
29/10:00pm 24.5 25.2 18.8 70 3.6 NE 13 15 7 8 1014.9 - 0.0
29/09:30pm 24.5 24.7 18.5 69 3.8 NE 15 19 8 10 1014.9 - 0.0
29/09:00pm 24.9 24.8 17.9 65 4.4 NE 15 19 8 10 1014.7 1014.5 0.0
29/08:30pm 25.3 24.3 17.5 62 4.9 NE 19 24 10 13 1014.5 - 0.0
29/08:00pm 25.6 24.8 17.1 59 5.3 NNE 17 22 9 12 1014.2 - 0.0
29/07:30pm 26.1 24.9 16.0 53 6.2 NNE 17 20 9 11 1013.8 - 0.0
29/07:00pm 26.6 25.3 15.8 51 6.6 NNE 17 20 9 11 1013.3 - 0.0
29/06:30pm 27.3 25.4 15.7 49 7.1 NNE 20 26 11 14 1013.0 - 0.0
29/06:00pm 28.4 25.7 15.7 46 7.8 NNE 24 30 13 16 1012.9 1012.7 0.0
29/05:30pm 29.1 26.2 15.2 42 8.5 NNE 24 33 13 18 1012.5 - 0.0
29/05:00pm 30.0 26.5 15.6 41 8.9 NNE 28 37 15 20 1012.3 - 0.0
29/04:30pm 32.2 28.1 8.0 22 13.4 NNE 19 24 10 13 1012.2 - 0.0
29/04:14pm 32.2 25.9 7.4 21 13.6 E 30 39 16 21 1012.0 - 0.0
29/04:00pm 32.5 26.3 7.7 21 13.7 E 30 39 16 21 1012.0 - 0.0
29/03:30pm 32.8 27.2 7.0 20 14.1 E 26 35 14 19 1012.1 - 0.0
29/03:00pm 33.1 27.1 8.5 22 13.8 ENE 30 39 16 21 1012.5 1012.3 0.0
29/02:30pm 32.5 26.6 8.9 23 13.3 E 30 37 16 20 1012.8 - 0.0
29/02:06pm 32.2 25.8 9.2 24 13.0 E 33 54 18 29 1013.2 - 0.0
29/02:00pm 32.6 25.7 8.7 22 13.4 E 35 48 19 26 1013.3 - 0.0
29/01:30pm 32.4 26.2 10.0 25 12.8 ESE 33 48 18 26 1013.7 - 0.0
29/01:00pm 31.1 27.2 12.0 31 11.2 ESE 24 39 13 21 1014.4 - 0.0
29/12:54pm 31.0 25.7 12.4 32 11.0 ESE 32 39 17 21 1014.4 - 0.0
29/12:45pm 30.7 23.9 11.9 31 11.0 ENE 39 46 21 25 1014.6 - 0.0
29/12:30pm 30.6 24.6 12.0 32 10.9 E 35 50 19 27 1015.0 - 0.0
29/12:00pm 30.4 24.9 11.7 31 10.9 E 32 44 17 24 1015.5 1015.3 0.0
29/11:30am 29.9 24.8 13.0 35 10.0 E 32 46 17 25 1015.9 - 0.0
29/11:00am 29.5 25.0 14.9 41 8.9 E 32 37 17 20 1016.3 - 0.0
29/10:30am 28.8 24.7 15.0 43 8.4 E 30 39 16 21 1016.6 - 0.0
29/10:00am 27.5 24.6 16.1 49 7.0 E 26 35 14 19 1016.7 - 0.0
29/09:30am 26.6 25.4 17.5 57 5.7 E 20 26 11 14 1016.9 - 0.0
29/09:00am 25.5 26.2 19.6 70 3.8 E 15 19 8 10 1016.8 1016.7 0.0
29/08:30am 25.0 26.8 20.4 75 3.0 E 11 15 6 8 1016.7 - 0.0
29/08:00am 23.2 24.9 19.3 79 2.5 SE 9 11 5 6 1016.5 - 0.0
29/07:30am 21.9 23.2 18.4 80 2.2 SE 9 11 5 6 1016.3 - 0.0
29/07:00am 20.6 21.9 18.5 88 1.3 SE 9 11 5 6 1016.0 - 0.0
29/06:30am 20.4 21.7 18.5 89 1.2 SSE 9 11 5 6 1015.7 - 0.0
29/06:00am 21.1 22.3 18.2 83 1.8 S 9 11 5 6 1015.3 1015.1 0.0
29/05:30am 20.5 22.3 18.2 87 1.4 SSE 6 7 3 4 1015.2 - 0.0
29/05:00am 20.6 23.2 18.4 87 1.4 SE 2 6 1 3 1014.9 - 0.0
29/04:30am 21.0 22.8 18.4 85 1.6 SE 6 9 3 5 1014.8 - 0.0
29/04:00am 21.8 23.1 18.4 81 2.1 ESE 9 11 5 6 1014.8 - 0.0
29/03:30am 22.3 22.9 18.5 79 2.4 SE 13 15 7 8 1014.7 - 0.0
29/03:00am 22.4 23.3 18.4 78 2.5 SE 11 13 6 7 1014.8 1014.6 0.0
29/02:30am 21.4 22.8 18.7 84 1.7 SE 9 9 5 5 1014.9 - 0.0
29/02:00am 21.7 23.6 19.0 84 1.7 E 7 9 4 5 1015.2 - 0.0
29/01:30am 22.0 24.2 19.5 86 1.6 ESE 7 9 4 5 1015.4 - 0.0
29/01:00am 22.9 24.4 19.8 83 2.0 SE 11 11 6 6 1015.4 - 0.0
29/12:30am 23.3 24.4 19.7 80 2.3 SSE 13 15 7 8 1015.4 - 0.0
29/12:00am 23.6 24.1 20.0 80 2.3 SSE 17 20 9 11 1015.5 1015.3 0.0
 
Date/Time
CST
Tmp

°C
App
Tmp
°C
Dew
Point
°C
Rel
Hum
%
Delta-T

°C
Wind Press
QNH
hPa
Press
MSL
hPa
Rain
since
9 am
mm
Dir
 
Spd
km/h
Gust
km/h
Spd
kts
Gust
kts
28/11:30pm 23.8 24.5 18.9 74 3.1 SSE 13 15 7 8 1015.3 - 0.0
28/11:00pm 23.9 25.3 18.7 72 3.3 SSE 9 11 5 6 1015.3 - 0.0
28/10:30pm 23.9 25.4 18.9 73 3.2 SE 9 11 5 6 1015.1 - 0.0
28/10:00pm 24.4 26.7 19.4 73 3.2 NNE 6 9 3 5 1015.0 - 0.0
28/09:30pm 24.4 25.7 19.4 73 3.2 NNE 11 15 6 8 1014.9 - 0.0
28/09:00pm 24.5 25.3 19.0 71 3.5 NNE 13 15 7 8 1014.6 1014.4 0.0

Latest Capital City Observations: Canberra | Sydney | Melbourne | Brisbane | Adelaide | Perth | Hobart | Darwin

Other Formats:

Comma delimited format used in spreadsheet applications
http://www.bom.gov.au/fwo/IDD60901/IDD60901.94120.axf

JavaScript Object Notation format (JSON) in row-major order
http://www.bom.gov.au/fwo/IDD60901/IDD60901.94120.json